Strona główna
METAR-TAF:

METAR-TAF

Lotnisko :

Waterbury-Oxford Airport

Oxford, Connecticut, Stany Zjednoczone

Szerokość geograficzna: 41-29N, Długość geograficzna: 073-08W, wysokość: 222 m

Aktualna obserwacja pogody

Raport powstał 15 minut temu, godzina 14:51 UTC
Wiatr 8 kt od zachód w porywach dochodzący do 18 kt
Temperatura 6°C
Wilgotność 61%
Ciśnienie 1019 hPa
Widzialność: 16.1 km
bezchmurnie

METAR: KOXC 171451Z 26008G18KT 10SM CLR 06/M01 A3010 RMK AO2 SLP210 T00611011 51014

czas: 10:06 (15:06 UTC)


TAF: brakujący

Obserwacja i prognoza pogody dla ponad 4000 lotnisk (raport METAR i TAF).

Dostępne stacje oznaczono żółtymi i czerwonymi punktami na mapie.

Najedź kursorem aby zobaczyć nazwę stacji.

Kliknij aby zobaczyć obserwacje i prognozy pogody.

Aby zmienić mapę: kliknij na zielony przycisk z czarnym krzyżykiem, aby powiększyć; na zielony przycisk z myślnikiem, aby pomniejszyć; na zielone strzałki, aby przejść do map sąsiednich.


METAR-TAF: